20V

Mc Elroy Airfield Airport

Kremmling, Colorado, USA
METAR K20V 191630Z AUTO 10005KT 10SM SCT080 M10/M12 A3039 RMK AO2
Observed Flight Rules
Jan-19 @ 16:30 UTC (11 minutes ago) Visual Flight Rules
Wind Visibility Clouds
100° at 5 knots 10 miles
  • Scattered at 8,000' AGL
Temperatures Readings
Current -10°C / 14°F
Dewpoint -12°C / 10°F
Humidity 85%
Altimeter 30.39" Hg
Pressure 1029.11 hPa
Elevation 2259
METAR K20V 191630Z AUTO 10005KT 10SM SCT080 M10/M12 A3039 RMK AO2
Observed Flight Rules
Jan-19 @ 16:30 UTC
(11 minutes ago)
VFR
Wind Visibility
100° at 5 knots 10 miles
Clouds
  • Scattered at 8,000' AGL
Temperature Dewpoint
-10°C / 14°F -12°C / 10°F
Humidity Altimeter Pressure
85% 30.39" Hg 1029.11 hPa